createdAt,value
2019-05-26T16:55:07.053Z,23.10
2019-05-26T16:57:33.915Z,24.70
2019-05-26T17:00:00.787Z,24.80
2019-05-26T17:02:27.905Z,24.60
2019-05-26T17:04:54.869Z,24.40
2019-05-26T17:07:21.828Z,24.30
2019-05-26T17:09:48.720Z,24.20
2019-05-26T17:12:15.584Z,24.10
2019-05-26T17:14:42.444Z,23.90
2019-05-26T17:17:14.708Z,23.80
2019-05-26T17:19:38.255Z,23.70
2019-05-26T17:22:05.329Z,23.70
2019-05-26T17:24:32.219Z,23.60
2019-05-26T17:26:59.181Z,23.40
2019-05-26T17:29:26.393Z,23.30
2019-05-26T17:31:53.305Z,23.20
2019-05-26T17:34:20.167Z,23.10
2019-05-26T17:36:47.238Z,23.10
2019-05-26T17:39:14.204Z,23.10
2019-05-26T17:41:41.076Z,23.10
2019-05-26T17:44:07.928Z,23.10
2019-05-26T17:46:35.104Z,23.20
2019-05-26T17:49:03.026Z,23.20
2019-05-26T17:51:29.880Z,23.20
2019-05-26T17:53:57.052Z,23.20
2019-05-26T17:56:24.265Z,23.20
2019-05-26T17:58:51.124Z,23.30
2019-05-26T18:01:17.984Z,23.30
2019-05-26T18:03:44.945Z,23.30
2019-05-26T18:06:11.821Z,23.30
2019-05-26T18:08:38.672Z,23.30
2019-05-26T18:11:05.539Z,23.20
2019-05-26T18:13:32.417Z,23.10
2019-05-26T18:15:59.283Z,23.00
2019-05-26T18:18:26.537Z,22.90
2019-05-26T18:20:53.511Z,22.80
2019-05-26T18:23:20.378Z,22.70
2019-05-26T18:25:47.351Z,22.60
2019-05-26T18:28:14.331Z,22.50
2019-05-26T18:30:41.208Z,22.50
2019-05-26T18:33:08.177Z,22.40
2019-05-26T18:35:35.038Z,22.30
2019-05-26T18:38:01.908Z,22.20
2019-05-26T18:40:28.858Z,22.20
2019-05-26T18:42:55.839Z,22.20
2019-05-26T18:45:22.835Z,22.10
2019-05-26T18:48:02.616Z,22.10
2019-05-26T18:50:18.670Z,22.00
2019-05-26T18:52:45.620Z,22.00
2019-05-26T18:55:12.780Z,21.90
2019-05-26T18:57:39.647Z,21.90
2019-05-26T19:00:07.514Z,21.90
2019-05-26T19:02:34.496Z,21.80
2019-05-26T19:05:01.595Z,21.80
2019-05-26T19:07:28.461Z,21.80
2019-05-26T19:09:55.344Z,21.70
2019-05-26T19:12:22.319Z,21.70
2019-05-26T19:14:49.285Z,21.70
2019-05-26T19:17:16.620Z,21.70
2019-05-26T19:19:43.488Z,21.60
2019-05-26T19:22:10.712Z,21.60
2019-05-26T19:24:37.591Z,21.50
2019-05-26T19:27:04.472Z,21.50
2019-05-26T19:29:31.344Z,21.50
2019-05-26T19:31:58.222Z,21.40
2019-05-26T19:34:25.107Z,21.30
2019-05-26T19:36:51.951Z,21.30
2019-05-26T19:39:18.939Z,21.30
2019-05-26T19:41:45.797Z,21.30
2019-05-26T19:44:12.675Z,21.20
2019-05-26T19:46:39.632Z,21.20
2019-05-26T19:49:06.509Z,21.20
2019-05-26T19:51:33.697Z,21.10
2019-05-26T19:54:00.696Z,21.10
2019-05-26T19:56:27.781Z,21.10
2019-05-26T19:58:54.641Z,21.10
2019-05-26T20:01:21.567Z,21.10
2019-05-26T20:03:48.741Z,21.00
2019-05-26T20:06:15.646Z,21.00
2019-05-26T20:08:42.730Z,21.00
2019-05-26T20:11:09.961Z,21.00
2019-05-26T20:18:31.132Z,20.90
2019-05-26T20:20:57.995Z,20.90
2019-05-26T20:23:25.252Z,20.90
2019-05-26T20:25:52.116Z,20.80
2019-05-26T20:28:19.072Z,20.80
2019-05-26T20:30:45.949Z,20.80
2019-05-26T20:33:12.824Z,20.80
2019-05-26T20:35:39.732Z,20.70
2019-05-26T20:38:06.625Z,20.70
2019-05-26T20:40:33.511Z,20.60
2019-05-26T20:43:00.480Z,20.60
2019-05-26T20:45:27.484Z,20.50
2019-05-26T20:47:54.432Z,20.50
2019-05-26T20:50:29.013Z,20.40
2019-05-26T20:52:50.583Z,20.40
2019-05-26T20:55:17.700Z,20.30
2019-05-26T20:57:45.004Z,20.20
2019-05-26T21:00:13.512Z,20.10
2019-05-26T21:02:41.076Z,20.00
2019-05-26T21:05:08.540Z,20.00
2019-05-26T21:07:35.592Z,19.90
2019-05-26T21:10:03.829Z,19.80
2019-05-26T21:12:30.715Z,19.80
2019-05-26T21:15:00.828Z,19.70
2019-05-26T21:17:26.748Z,19.60
2019-05-26T21:19:53.956Z,19.50
2019-05-26T21:22:20.931Z,19.40
2019-05-26T21:24:47.796Z,19.40
2019-05-26T21:27:14.659Z,19.30
2019-05-26T21:29:41.548Z,19.20
2019-05-26T21:32:08.409Z,19.20
2019-05-26T21:34:35.272Z,19.20
2019-05-26T21:37:02.670Z,19.00
2019-05-26T21:39:29.544Z,19.00
2019-05-26T21:41:56.687Z,18.90
2019-05-26T21:44:23.569Z,18.90
2019-05-26T21:46:50.447Z,18.80
2019-05-26T21:49:17.615Z,18.80
2019-05-26T21:51:45.014Z,18.70
2019-05-26T21:54:12.062Z,18.70
2019-05-26T21:56:39.035Z,18.60
2019-05-26T21:59:05.920Z,18.50
2019-05-26T22:01:33.021Z,18.50
2019-05-26T22:03:59.888Z,18.50
2019-05-26T22:06:27.114Z,18.50
2019-05-26T22:08:53.976Z,18.40
2019-05-26T22:11:20.852Z,18.40
2019-05-26T22:13:47.724Z,18.40
2019-05-26T22:16:15.000Z,18.40
2019-05-26T22:18:41.869Z,18.40
2019-05-26T22:21:08.828Z,18.40
2019-05-26T22:23:36.530Z,18.40
2019-05-26T22:26:03.587Z,18.50
2019-05-26T22:28:30.451Z,18.50
2019-05-26T22:30:57.329Z,18.50
2019-05-26T22:33:24.283Z,18.50
2019-05-26T22:35:51.144Z,18.60
2019-05-26T22:38:18.014Z,18.60
2019-05-26T22:40:44.861Z,18.60
2019-05-26T22:43:11.720Z,18.60
2019-05-26T22:45:38.795Z,18.60
2019-05-26T22:48:05.651Z,18.60
2019-05-26T22:50:33.043Z,18.60
2019-05-26T22:53:00.016Z,18.60
2019-05-26T22:55:26.891Z,18.60
2019-05-26T22:57:53.773Z,18.70
2019-05-26T23:00:21.152Z,18.70
2019-05-26T23:02:48.005Z,18.70
2019-05-26T23:05:14.971Z,18.70
2019-05-26T23:07:41.841Z,18.70
2019-05-26T23:10:10.303Z,18.70
2019-05-26T23:12:37.867Z,18.70
2019-05-26T23:15:05.009Z,18.70
2019-05-26T23:17:31.962Z,18.70
2019-05-26T23:19:58.829Z,18.70
2019-05-26T23:22:25.701Z,18.70
2019-05-26T23:24:52.679Z,18.70
2019-05-26T23:27:19.560Z,18.70
2019-05-26T23:29:46.531Z,18.70
2019-05-26T23:32:13.400Z,18.70
2019-05-26T23:34:40.259Z,18.70
2019-05-26T23:37:07.376Z,18.70
2019-05-26T23:39:34.340Z,18.70
2019-05-26T23:42:01.572Z,18.70
2019-05-26T23:44:28.444Z,18.70
2019-05-26T23:46:55.310Z,18.70
2019-05-26T23:49:24.832Z,18.70
2019-05-26T23:51:52.104Z,18.60
2019-05-26T23:54:19.070Z,18.50
2019-05-26T23:56:46.259Z,18.50
2019-05-26T23:59:13.121Z,18.40
